createdAt,value
2018-12-31T00:00:08.714Z,13.60
2018-12-31T00:02:51.517Z,12.10
2018-12-31T00:05:36.101Z,10.33
2018-12-31T00:08:21.035Z,10.53
2018-12-31T00:11:06.212Z,11.33
2018-12-31T00:13:51.073Z,14.90
2018-12-31T00:16:36.425Z,10.93
2018-12-31T00:19:21.302Z,14.70
2018-12-31T00:22:06.253Z,19.70
2018-12-31T00:24:51.074Z,8.13
2018-12-31T00:27:36.683Z,12.03
2018-12-31T00:30:21.625Z,11.50
2018-12-31T00:33:06.236Z,13.97
2018-12-31T00:35:51.536Z,14.47
2018-12-31T00:38:23.617Z,12.43
2018-12-31T00:41:15.785Z,12.93
2018-12-31T00:44:01.158Z,10.17
2018-12-31T00:46:46.270Z,10.63
2018-12-31T00:49:31.198Z,11.37
2018-12-31T00:52:16.161Z,17.33
2018-12-31T00:55:01.177Z,14.53
2018-12-31T00:57:46.414Z,7.87
2018-12-31T01:00:31.447Z,14.60
2018-12-31T01:03:16.318Z,11.60
2018-12-31T01:06:01.865Z,17.07
2018-12-31T01:08:34.176Z,11.20
2018-12-31T01:11:25.958Z,12.07
2018-12-31T01:14:10.485Z,12.40
2018-12-31T01:16:56.137Z,13.00
2018-12-31T01:19:40.909Z,10.63
2018-12-31T01:22:26.073Z,17.53
2018-12-31T01:25:11.540Z,13.10
2018-12-31T01:27:56.230Z,13.73
2018-12-31T01:30:41.354Z,11.70
2018-12-31T01:33:26.368Z,10.73
2018-12-31T01:36:11.465Z,19.43
2018-12-31T01:38:56.590Z,11.70
2018-12-31T01:41:41.906Z,9.33
2018-12-31T01:44:26.768Z,14.47
2018-12-31T01:46:59.189Z,14.60
2018-12-31T01:49:50.638Z,10.23
2018-12-31T01:52:35.465Z,10.33
2018-12-31T01:55:20.573Z,10.40
2018-12-31T01:57:53.027Z,13.77
2018-12-31T02:00:45.197Z,11.33
2018-12-31T02:03:17.616Z,11.17
2018-12-31T02:06:09.123Z,10.47
2018-12-31T02:08:54.100Z,11.17
2018-12-31T02:11:39.229Z,13.97
2018-12-31T02:14:24.246Z,9.73
2018-12-31T02:17:09.205Z,7.10
2018-12-31T02:19:41.512Z,11.73
2018-12-31T02:22:26.112Z,14.17
2018-12-31T02:25:11.301Z,12.50
2018-12-31T02:27:43.690Z,11.60
2018-12-31T02:30:35.458Z,6.13
2018-12-31T02:33:20.691Z,13.00
2018-12-31T02:36:05.862Z,13.77
2018-12-31T02:38:51.023Z,8.60
2018-12-31T02:41:35.952Z,12.13
2018-12-31T02:44:20.916Z,13.90
2018-12-31T02:47:06.141Z,13.37
2018-12-31T02:49:51.041Z,13.37
2018-12-31T02:52:36.095Z,10.87
2018-12-31T02:55:20.905Z,12.60
2018-12-31T02:58:05.836Z,12.70
2018-12-31T03:00:37.857Z,13.47
2018-12-31T03:03:29.459Z,13.97
2018-12-31T03:06:14.774Z,15.47
2018-12-31T03:08:59.789Z,12.80
2018-12-31T03:11:44.840Z,17.03
2018-12-31T03:14:29.885Z,11.87
2018-12-31T03:17:14.878Z,14.17
2018-12-31T03:19:59.944Z,15.83
2018-12-31T03:22:45.330Z,14.90
2018-12-31T03:25:30.022Z,10.07
2018-12-31T03:28:15.198Z,13.83
2018-12-31T03:31:00.172Z,13.43
2018-12-31T03:33:45.634Z,19.47
2018-12-31T03:36:30.556Z,13.77
2018-12-31T03:39:15.767Z,19.10
2018-12-31T03:42:01.073Z,16.97
2018-12-31T03:44:45.854Z,10.17
2018-12-31T03:47:30.872Z,20.03
2018-12-31T03:50:15.882Z,14.43
2018-12-31T03:53:00.876Z,15.70
2018-12-31T03:55:45.947Z,11.23
2018-12-31T03:58:30.761Z,16.30
2018-12-31T04:01:15.799Z,14.00
2018-12-31T04:04:00.677Z,14.50
2018-12-31T04:06:45.786Z,19.27
2018-12-31T04:09:30.993Z,20.57
2018-12-31T04:12:15.861Z,11.23
2018-12-31T04:15:00.598Z,14.50
2018-12-31T04:17:45.656Z,18.00
2018-12-31T04:20:30.554Z,19.87
2018-12-31T04:23:15.828Z,17.20
2018-12-31T04:26:00.709Z,14.50
2018-12-31T04:28:45.696Z,14.73
2018-12-31T04:31:30.694Z,15.20
2018-12-31T04:34:15.883Z,11.27
2018-12-31T04:37:00.992Z,14.50
2018-12-31T04:39:45.977Z,20.17
2018-12-31T04:42:31.017Z,12.90
2018-12-31T04:45:16.014Z,12.27
2018-12-31T04:48:01.151Z,13.43
2018-12-31T04:50:46.906Z,13.57
2018-12-31T04:53:32.363Z,14.00
2018-12-31T04:56:17.101Z,11.90
2018-12-31T04:59:02.241Z,14.23
2018-12-31T05:01:47.282Z,15.07
2018-12-31T05:04:32.470Z,12.60
2018-12-31T05:07:17.377Z,12.60
2018-12-31T05:10:02.135Z,11.57
2018-12-31T05:12:47.279Z,12.37
2018-12-31T05:15:32.405Z,14.57
2018-12-31T05:18:17.554Z,18.40
2018-12-31T05:21:02.501Z,14.70
2018-12-31T05:23:47.519Z,12.63
2018-12-31T05:26:32.681Z,14.63
2018-12-31T05:29:17.822Z,12.60
2018-12-31T05:32:02.798Z,16.27
2018-12-31T05:34:47.905Z,15.47
2018-12-31T05:37:32.633Z,18.17
2018-12-31T05:40:05.285Z,13.67
2018-12-31T05:42:57.150Z,16.23
2018-12-31T05:45:36.206Z,20.70
2018-12-31T05:48:27.851Z,15.53
2018-12-31T05:51:12.443Z,17.37
2018-12-31T05:53:57.883Z,17.03
2018-12-31T05:56:42.802Z,14.80
2018-12-31T05:59:28.098Z,11.57
2018-12-31T06:02:13.158Z,16.83
2018-12-31T06:04:58.237Z,17.13
2018-12-31T06:07:43.391Z,21.23
2018-12-31T06:10:28.507Z,14.63
2018-12-31T06:13:13.733Z,21.63
2018-12-31T06:15:58.823Z,24.93
2018-12-31T06:18:43.842Z,21.63
2018-12-31T06:21:28.850Z,15.27
2018-12-31T06:24:13.954Z,20.07
2018-12-31T06:26:59.493Z,23.60
2018-12-31T06:29:44.265Z,25.27
2018-12-31T06:32:29.271Z,19.77
2018-12-31T06:35:14.482Z,22.53
2018-12-31T06:37:59.982Z,24.97
2018-12-31T06:40:44.570Z,19.90
2018-12-31T06:43:29.798Z,20.70
2018-12-31T06:46:14.677Z,22.30
2018-12-31T06:49:00.394Z,22.43
2018-12-31T06:51:45.235Z,24.23
2018-12-31T06:54:30.565Z,25.20
2018-12-31T06:57:15.547Z,25.93
2018-12-31T07:00:00.626Z,29.10
2018-12-31T07:02:45.574Z,22.60
2018-12-31T07:05:30.753Z,27.00
2018-12-31T07:08:16.107Z,26.90
2018-12-31T07:11:01.014Z,25.10
2018-12-31T07:13:45.874Z,23.77
2018-12-31T07:16:31.211Z,27.97
2018-12-31T07:19:16.377Z,23.00
2018-12-31T07:21:48.715Z,26.57
2018-12-31T07:24:40.418Z,34.03
2018-12-31T07:27:25.327Z,30.33
2018-12-31T07:30:10.489Z,24.97
2018-12-31T07:32:55.537Z,28.50
2018-12-31T07:35:40.890Z,31.27
2018-12-31T07:38:26.109Z,28.20
2018-12-31T07:41:11.369Z,28.00
2018-12-31T07:43:56.422Z,34.90
2018-12-31T07:46:41.569Z,26.53
2018-12-31T07:49:26.666Z,30.77
2018-12-31T07:52:11.653Z,30.07
2018-12-31T07:54:56.573Z,31.77
2018-12-31T07:57:42.206Z,28.93
2018-12-31T08:00:25.234Z,34.60
2018-12-31T08:03:09.753Z,27.50
2018-12-31T08:05:54.905Z,25.23
2018-12-31T08:08:40.187Z,24.80
2018-12-31T08:11:24.960Z,36.80
2018-12-31T08:14:10.046Z,31.20
2018-12-31T08:16:55.147Z,34.70
2018-12-31T08:19:40.322Z,30.43
2018-12-31T08:22:25.366Z,33.27
2018-12-31T08:24:57.449Z,25.27
2018-12-31T08:27:41.894Z,25.17
2018-12-31T08:30:36.149Z,23.77
2018-12-31T08:33:21.174Z,30.70
2018-12-31T08:36:06.250Z,24.07
2018-12-31T08:38:51.447Z,32.40
2018-12-31T08:41:36.402Z,26.20
2018-12-31T08:44:21.181Z,18.13
2018-12-31T08:47:06.180Z,33.00
2018-12-31T08:49:51.401Z,30.43
2018-12-31T08:52:36.316Z,19.43
2018-12-31T08:55:28.348Z,26.70
2018-12-31T08:58:00.313Z,19.23
2018-12-31T09:00:45.554Z,28.00
2018-12-31T09:03:30.374Z,23.67
2018-12-31T09:06:02.605Z,27.13
2018-12-31T09:08:54.230Z,29.20
2018-12-31T09:11:39.166Z,29.77
2018-12-31T09:14:11.361Z,21.20
2018-12-31T09:17:03.121Z,24.17
2018-12-31T09:22:50.997Z,27.80
2018-12-31T09:25:36.045Z,25.20
2018-12-31T09:28:20.884Z,15.90
2018-12-31T09:31:05.297Z,21.77
2018-12-31T09:33:50.367Z,23.07
2018-12-31T09:36:36.615Z,26.20
2018-12-31T09:39:21.342Z,23.50
2018-12-31T09:42:06.402Z,23.60
2018-12-31T09:44:38.434Z,17.60
2018-12-31T09:47:30.686Z,21.03
2018-12-31T09:50:15.605Z,19.67
2018-12-31T09:53:01.099Z,18.43
2018-12-31T09:55:45.739Z,17.70
2018-12-31T09:58:30.682Z,18.40
2018-12-31T10:01:15.929Z,19.67
2018-12-31T10:04:01.073Z,19.07
2018-12-31T10:06:45.950Z,14.33
2018-12-31T10:09:31.124Z,21.20
2018-12-31T10:12:16.719Z,20.47
2018-12-31T10:15:01.700Z,17.37
2018-12-31T10:17:46.580Z,18.30
2018-12-31T10:20:31.924Z,15.97
2018-12-31T10:23:16.822Z,16.30
2018-12-31T10:25:49.170Z,18.23
2018-12-31T10:28:21.291Z,15.90
2018-12-31T10:31:12.950Z,12.93
2018-12-31T10:33:58.074Z,19.80
2018-12-31T10:36:42.955Z,15.37
2018-12-31T10:42:30.927Z,16.17
2018-12-31T10:45:15.735Z,15.70
2018-12-31T10:48:00.906Z,22.63
2018-12-31T10:50:46.110Z,18.47
2018-12-31T10:53:30.863Z,14.83
2018-12-31T10:56:16.235Z,14.30
2018-12-31T10:59:01.055Z,14.87
2018-12-31T11:01:46.159Z,12.90
2018-12-31T11:04:31.401Z,16.67
2018-12-31T11:07:16.177Z,21.83
2018-12-31T11:10:01.037Z,15.13
2018-12-31T11:12:46.505Z,13.73
2018-12-31T11:15:18.937Z,17.53
2018-12-31T11:18:11.411Z,11.03
2018-12-31T11:20:56.057Z,17.07
2018-12-31T11:23:41.350Z,13.37
2018-12-31T11:26:13.549Z,15.43
2018-12-31T11:29:05.641Z,15.33
2018-12-31T11:31:50.393Z,14.23
2018-12-31T11:34:35.703Z,17.57
2018-12-31T11:37:20.435Z,14.00
2018-12-31T11:40:05.215Z,12.40
2018-12-31T11:42:50.374Z,14.27
2018-12-31T11:48:07.570Z,16.63
2018-12-31T11:50:53.004Z,19.27
2018-12-31T11:53:25.195Z,11.83
2018-12-31T11:56:16.795Z,15.57
2018-12-31T11:59:01.875Z,11.50
2018-12-31T12:01:47.418Z,13.73
2018-12-31T12:04:32.096Z,18.70
2018-12-31T12:07:17.388Z,12.20
2018-12-31T12:10:02.159Z,16.90
2018-12-31T12:12:47.124Z,13.87
2018-12-31T12:15:32.037Z,19.33
2018-12-31T12:18:17.041Z,18.70
2018-12-31T12:20:49.054Z,19.00
2018-12-31T12:23:33.990Z,14.23
2018-12-31T12:26:18.975Z,19.23
2018-12-31T12:29:04.338Z,15.23
2018-12-31T12:31:49.907Z,11.97
2018-12-31T12:34:35.113Z,13.60
2018-12-31T12:37:20.173Z,12.77
2018-12-31T12:40:05.291Z,17.40
2018-12-31T12:42:50.607Z,12.33
2018-12-31T12:45:22.648Z,13.57
2018-12-31T12:48:14.258Z,15.33
2018-12-31T12:51:08.161Z,9.27
2018-12-31T12:53:52.991Z,13.90
2018-12-31T12:56:38.116Z,11.40
2018-12-31T12:59:23.645Z,12.00
2018-12-31T13:02:08.374Z,14.27
2018-12-31T13:04:53.514Z,16.33
2018-12-31T13:07:38.582Z,11.83
2018-12-31T13:10:10.911Z,8.80
2018-12-31T13:12:43.169Z,12.50
2018-12-31T13:15:27.804Z,12.47
2018-12-31T13:18:12.990Z,14.50
2018-12-31T13:20:57.805Z,13.30
2018-12-31T13:23:42.922Z,11.83
2018-12-31T13:26:28.166Z,11.40
2018-12-31T13:29:13.211Z,8.13
2018-12-31T13:31:58.241Z,11.70
2018-12-31T13:34:43.329Z,9.07
2018-12-31T13:40:34.383Z,6.70
2018-12-31T13:43:29.873Z,6.73
2018-12-31T13:46:15.058Z,9.80
2018-12-31T13:48:59.962Z,9.97
2018-12-31T13:51:44.927Z,7.67
2018-12-31T13:54:29.869Z,7.00
2018-12-31T13:57:14.939Z,11.60
2018-12-31T14:00:00.157Z,6.50
2018-12-31T14:02:44.802Z,11.30
2018-12-31T14:05:30.006Z,8.83
2018-12-31T14:08:14.968Z,13.10
2018-12-31T14:10:59.915Z,8.80
2018-12-31T14:13:45.001Z,13.60
2018-12-31T14:16:30.027Z,9.73
2018-12-31T14:19:14.991Z,9.83
2018-12-31T14:22:00.374Z,13.03
2018-12-31T14:24:44.989Z,11.90
2018-12-31T14:27:30.059Z,13.63
2018-12-31T14:30:16.792Z,10.53
2018-12-31T14:33:02.251Z,12.03
2018-12-31T14:35:47.215Z,15.37
2018-12-31T14:38:32.190Z,13.20
2018-12-31T14:41:17.049Z,15.23
2018-12-31T14:44:02.058Z,14.70
2018-12-31T14:46:47.137Z,18.87
2018-12-31T14:49:38.946Z,18.23
2018-12-31T14:52:24.174Z,11.63
2018-12-31T14:55:09.309Z,16.03
2018-12-31T14:57:54.597Z,17.13
2018-12-31T15:00:39.791Z,19.73
2018-12-31T15:03:25.676Z,18.57
2018-12-31T15:06:10.543Z,22.50
2018-12-31T15:12:01.890Z,22.47
2018-12-31T15:14:46.802Z,20.67
2018-12-31T15:17:31.809Z,20.17
2018-12-31T15:20:16.672Z,21.80
2018-12-31T15:23:01.757Z,19.97
2018-12-31T15:25:46.997Z,20.30
2018-12-31T15:28:32.473Z,22.40
2018-12-31T15:31:17.498Z,23.03
2018-12-31T15:34:02.443Z,25.90
2018-12-31T15:36:47.418Z,24.00
2018-12-31T15:39:32.423Z,23.93
2018-12-31T15:42:17.570Z,22.77
2018-12-31T15:45:02.694Z,26.90
2018-12-31T15:47:47.930Z,29.07
2018-12-31T15:50:32.827Z,31.73
2018-12-31T15:53:17.754Z,33.60
2018-12-31T15:56:02.934Z,70.60
2018-12-31T15:58:54.697Z,50.87
2018-12-31T16:01:40.078Z,34.30
2018-12-31T16:04:25.047Z,30.80
2018-12-31T16:07:10.126Z,29.67
2018-12-31T16:09:55.257Z,36.43
2018-12-31T16:12:40.615Z,32.27
2018-12-31T16:15:25.849Z,37.00
2018-12-31T16:18:10.838Z,36.33
2018-12-31T16:20:56.014Z,30.00
2018-12-31T16:23:41.120Z,45.00
2018-12-31T16:26:26.345Z,34.27
2018-12-31T16:29:11.563Z,29.00
2018-12-31T16:31:56.994Z,33.27
2018-12-31T16:34:41.965Z,36.07
2018-12-31T16:40:18.761Z,38.23
2018-12-31T16:43:03.911Z,41.03
2018-12-31T16:45:49.243Z,40.87
2018-12-31T16:48:34.182Z,41.70
2018-12-31T16:54:23.971Z,34.00
2018-12-31T16:57:08.378Z,41.60
2018-12-31T16:59:53.466Z,33.07
2018-12-31T17:02:38.612Z,49.73
2018-12-31T17:05:23.577Z,36.87
2018-12-31T17:08:08.648Z,40.80
2018-12-31T17:10:53.829Z,38.70
2018-12-31T17:13:38.470Z,30.77
2018-12-31T17:16:24.178Z,35.57
2018-12-31T17:22:01.024Z,34.47
2018-12-31T17:24:46.621Z,39.47
2018-12-31T17:27:31.507Z,39.17
2018-12-31T17:30:04.234Z,45.13
2018-12-31T17:32:49.608Z,38.90
2018-12-31T17:35:34.970Z,44.40
2018-12-31T17:38:19.821Z,42.40
2018-12-31T17:41:04.489Z,42.30
2018-12-31T17:43:50.017Z,38.00
2018-12-31T17:46:34.599Z,47.43
2018-12-31T17:49:19.877Z,45.00
2018-12-31T17:52:04.955Z,45.30
2018-12-31T17:54:49.740Z,49.10
2018-12-31T17:57:34.898Z,49.47
2018-12-31T18:00:20.025Z,47.60
2018-12-31T18:03:05.180Z,36.80
2018-12-31T18:05:49.924Z,46.13
2018-12-31T18:08:35.048Z,36.70
2018-12-31T18:11:20.332Z,37.80
2018-12-31T18:14:05.134Z,39.67
2018-12-31T18:16:50.106Z,45.80
2018-12-31T18:19:35.300Z,47.80
2018-12-31T18:22:20.810Z,45.23
2018-12-31T18:25:05.578Z,44.30
2018-12-31T18:27:50.782Z,43.07
2018-12-31T18:30:22.994Z,53.17
2018-12-31T18:33:07.870Z,54.13
2018-12-31T18:35:53.031Z,47.70
2018-12-31T18:38:38.317Z,48.53
2018-12-31T18:41:23.414Z,50.03
2018-12-31T18:44:08.335Z,49.57
2018-12-31T18:46:53.471Z,43.33
2018-12-31T18:49:38.401Z,48.83
2018-12-31T18:52:23.424Z,39.40
2018-12-31T18:55:08.519Z,45.00
2018-12-31T18:57:53.583Z,48.07
2018-12-31T19:00:38.877Z,50.80
2018-12-31T19:03:23.946Z,50.47
2018-12-31T19:06:09.369Z,65.47
2018-12-31T19:08:54.097Z,60.40
2018-12-31T19:11:39.257Z,54.93
2018-12-31T19:14:24.206Z,54.00
2018-12-31T19:17:09.635Z,64.30
2018-12-31T19:19:54.855Z,68.07
2018-12-31T19:22:39.564Z,77.33
2018-12-31T19:25:24.600Z,59.97
2018-12-31T19:28:09.710Z,65.73
2018-12-31T19:30:54.901Z,82.20
2018-12-31T19:33:39.915Z,57.67
2018-12-31T19:36:25.142Z,71.07
2018-12-31T19:38:57.210Z,60.50
2018-12-31T19:41:42.105Z,87.80
2018-12-31T19:44:26.937Z,69.10
2018-12-31T19:47:12.320Z,68.30
2018-12-31T19:49:57.359Z,75.93
2018-12-31T19:52:42.213Z,64.03
2018-12-31T19:55:27.133Z,57.57
2018-12-31T19:58:12.208Z,75.30
2018-12-31T20:00:57.427Z,67.13
2018-12-31T20:03:42.291Z,72.83
2018-12-31T20:06:27.573Z,91.50
2018-12-31T20:09:12.666Z,165.53
2018-12-31T20:11:57.257Z,157.17
2018-12-31T20:14:41.688Z,85.87
2018-12-31T20:17:26.612Z,57.80
2018-12-31T20:23:01.961Z,72.50
2018-12-31T20:25:46.470Z,56.10
2018-12-31T20:28:31.510Z,45.43
2018-12-31T20:31:03.630Z,59.80
2018-12-31T20:33:48.674Z,46.07
2018-12-31T20:36:33.646Z,50.83
2018-12-31T20:39:19.193Z,54.60
2018-12-31T20:42:04.237Z,58.37
2018-12-31T20:44:49.413Z,66.33
2018-12-31T20:47:33.997Z,68.77
2018-12-31T20:50:19.199Z,77.83
2018-12-31T20:52:51.210Z,61.63
2018-12-31T20:55:36.231Z,69.90
2018-12-31T20:58:21.234Z,67.60
2018-12-31T21:01:06.507Z,51.33
2018-12-31T21:03:51.374Z,56.70
2018-12-31T21:06:36.566Z,62.47
2018-12-31T21:09:21.556Z,55.83
2018-12-31T21:11:53.592Z,64.53
2018-12-31T21:14:38.527Z,100.30
2018-12-31T21:17:23.257Z,81.80
2018-12-31T21:20:07.767Z,72.07
2018-12-31T21:22:52.793Z,76.47
2018-12-31T21:25:37.892Z,64.47
2018-12-31T21:28:22.802Z,66.93
2018-12-31T21:31:07.872Z,70.73
2018-12-31T21:33:52.978Z,65.27
2018-12-31T21:36:38.108Z,73.70
2018-12-31T21:39:22.974Z,86.50
2018-12-31T21:42:08.346Z,70.77
2018-12-31T21:44:53.149Z,56.67
2018-12-31T21:47:38.186Z,48.07
2018-12-31T21:50:23.328Z,55.40
2018-12-31T21:53:08.370Z,54.57
2018-12-31T21:55:53.502Z,58.30
2018-12-31T21:58:38.874Z,57.73
2018-12-31T22:01:23.525Z,123.10
2018-12-31T22:04:08.626Z,170.37
2018-12-31T22:06:53.574Z,124.87
2018-12-31T22:09:38.841Z,69.83
2018-12-31T22:12:23.697Z,78.13
2018-12-31T22:15:09.643Z,53.07
2018-12-31T22:17:54.723Z,60.93
2018-12-31T22:20:39.586Z,66.33
2018-12-31T22:23:24.666Z,59.97
2018-12-31T22:25:56.902Z,59.87
2018-12-31T22:28:48.489Z,49.07
2018-12-31T22:31:33.673Z,52.70
2018-12-31T22:34:18.723Z,58.20
2018-12-31T22:37:03.689Z,46.20
2018-12-31T22:39:48.750Z,46.37
2018-12-31T22:42:33.886Z,65.33
2018-12-31T22:45:18.745Z,62.47
2018-12-31T22:48:03.787Z,57.83
2018-12-31T22:50:48.881Z,75.83
2018-12-31T22:53:33.798Z,96.50
2018-12-31T22:56:18.970Z,100.83
2018-12-31T22:59:04.056Z,104.43
2018-12-31T23:01:49.139Z,230.63
2018-12-31T23:04:34.222Z,303.37
2018-12-31T23:07:19.672Z,335.07
2018-12-31T23:10:04.456Z,463.00
2018-12-31T23:12:49.362Z,393.13
2018-12-31T23:15:34.383Z,368.17
2018-12-31T23:18:19.497Z,425.13
2018-12-31T23:21:04.482Z,490.27
2018-12-31T23:23:49.926Z,627.70
2018-12-31T23:26:34.655Z,560.77
2018-12-31T23:29:19.520Z,401.37
2018-12-31T23:32:04.488Z,419.53
2018-12-31T23:34:48.942Z,346.90
2018-12-31T23:37:33.819Z,330.60
2018-12-31T23:40:18.745Z,300.17
2018-12-31T23:43:06.608Z,268.77
2018-12-31T23:45:51.023Z,316.80
2018-12-31T23:48:37.479Z,301.90
2018-12-31T23:51:23.252Z,289.17
2018-12-31T23:54:07.770Z,236.20
2018-12-31T23:56:53.009Z,199.00
2018-12-31T23:59:38.044Z,202.10
